createdAt,value
2019-05-22T00:02:03.818Z,7.30
2019-05-22T00:04:37.690Z,10.25
2019-05-22T00:07:05.837Z,7.37
2019-05-22T00:09:34.446Z,8.68
2019-05-22T00:12:00.543Z,10.45
2019-05-22T00:14:27.456Z,9.18
2019-05-22T00:16:55.783Z,10.75
2019-05-22T00:19:23.765Z,10.72
2019-05-22T00:21:52.170Z,8.88
2019-05-22T00:24:19.028Z,10.35
2019-05-22T00:26:45.933Z,7.03
2019-05-22T00:29:12.520Z,6.60
2019-05-22T00:31:39.633Z,8.28
2019-05-22T00:34:06.199Z,6.85
2019-05-22T00:36:33.113Z,4.97
2019-05-22T00:39:00.226Z,6.05
2019-05-22T00:41:30.707Z,7.25
2019-05-22T00:43:57.587Z,7.60
2019-05-22T00:46:24.625Z,7.20
2019-05-22T00:48:53.012Z,6.62
2019-05-22T00:51:21.098Z,8.15
2019-05-22T00:53:51.039Z,6.55
2019-05-22T00:56:37.464Z,7.58
2019-05-22T00:59:17.073Z,6.33
2019-05-22T01:01:45.191Z,5.30
2019-05-22T01:04:13.383Z,5.00
2019-05-22T01:06:43.292Z,6.70
2019-05-22T01:09:16.105Z,8.88
2019-05-22T01:11:44.419Z,6.42
2019-05-22T01:14:12.324Z,8.58
2019-05-22T01:16:38.899Z,13.62
2019-05-22T01:19:06.930Z,13.08
2019-05-22T01:21:34.031Z,18.80
2019-05-22T01:24:00.701Z,15.83
2019-05-22T01:26:28.617Z,14.33
2019-05-22T01:28:55.523Z,13.00
2019-05-22T01:31:23.515Z,11.18
2019-05-22T01:33:51.551Z,10.55
2019-05-22T01:36:23.034Z,9.13
2019-05-22T01:38:52.336Z,9.13
2019-05-22T01:41:26.735Z,8.73
2019-05-22T01:43:56.154Z,7.03
2019-05-22T01:46:24.354Z,6.70
2019-05-22T01:48:55.376Z,6.90
2019-05-22T01:51:21.458Z,6.22
2019-05-22T01:53:49.457Z,5.33
2019-05-22T01:56:16.510Z,5.60
2019-05-22T01:58:44.604Z,4.50
2019-05-22T02:01:13.992Z,4.90
2019-05-22T02:03:40.226Z,4.33
2019-05-22T02:06:06.609Z,3.92
2019-05-22T02:08:37.186Z,5.03
2019-05-22T02:11:05.288Z,4.53
2019-05-22T02:13:43.917Z,4.50
2019-05-22T02:16:10.905Z,4.97
2019-05-22T02:18:38.707Z,4.78
2019-05-22T02:21:06.225Z,3.90
2019-05-22T02:23:33.035Z,3.27
2019-05-22T02:26:03.841Z,4.40
2019-05-22T02:28:30.358Z,3.95
2019-05-22T02:30:56.576Z,3.50
2019-05-22T02:33:24.336Z,3.60
2019-05-22T02:35:50.652Z,4.62
2019-05-22T02:38:17.233Z,3.95
2019-05-22T02:40:45.429Z,4.28
2019-05-22T02:43:12.134Z,3.90
2019-05-22T02:45:40.826Z,3.75
2019-05-22T02:48:07.132Z,3.83
2019-05-22T02:50:33.937Z,4.80
2019-05-22T02:53:03.168Z,2.90
2019-05-22T02:55:30.696Z,3.50
2019-05-22T02:57:56.965Z,4.10
2019-05-22T03:00:28.784Z,3.08
2019-05-22T03:02:55.201Z,4.28
2019-05-22T03:05:22.290Z,4.45
2019-05-22T03:07:48.622Z,4.60
2019-05-22T03:10:17.964Z,5.10
2019-05-22T03:12:44.975Z,4.47
2019-05-22T03:15:15.531Z,5.55
2019-05-22T03:17:43.034Z,4.90
2019-05-22T03:20:17.691Z,7.37
2019-05-22T03:23:04.359Z,9.03
2019-05-22T03:25:32.570Z,8.48
2019-05-22T03:28:00.550Z,11.55
2019-05-22T03:30:32.048Z,10.35
2019-05-22T03:33:01.232Z,10.43
2019-05-22T03:35:30.815Z,7.97
2019-05-22T03:37:58.428Z,6.47
2019-05-22T03:40:26.036Z,8.50
2019-05-22T03:42:52.247Z,10.50
2019-05-22T03:45:18.620Z,9.85
2019-05-22T03:47:45.643Z,7.83
2019-05-22T03:50:13.135Z,6.30
2019-05-22T03:52:39.453Z,4.97
2019-05-22T03:55:08.870Z,4.92
2019-05-22T03:57:37.780Z,5.00
2019-05-22T04:00:07.376Z,5.08
2019-05-22T04:02:34.121Z,3.80
2019-05-22T04:05:04.067Z,3.35
2019-05-22T04:07:30.719Z,3.70
2019-05-22T04:09:57.759Z,4.20
2019-05-22T04:12:24.501Z,3.62
2019-05-22T04:14:50.856Z,4.50
2019-05-22T04:17:18.058Z,4.00
2019-05-22T04:19:50.403Z,3.35
2019-05-22T04:22:13.170Z,3.40
2019-05-22T04:24:40.989Z,2.45
2019-05-22T04:27:11.763Z,4.35
2019-05-22T04:29:40.109Z,3.60
2019-05-22T04:32:24.786Z,2.75
2019-05-22T04:34:52.528Z,4.00
2019-05-22T04:37:19.548Z,4.17
2019-05-22T04:39:48.493Z,4.25
2019-05-22T04:42:15.264Z,4.37
2019-05-22T04:44:57.961Z,3.70
2019-05-22T04:50:06.261Z,4.12
2019-05-22T04:52:18.367Z,4.20
2019-05-22T04:54:44.557Z,4.05
2019-05-22T04:57:11.068Z,3.65
2019-05-22T04:59:38.301Z,4.42
2019-05-22T05:02:04.529Z,3.72
2019-05-22T05:04:31.211Z,3.90
2019-05-22T05:06:57.826Z,3.37
2019-05-22T05:09:24.824Z,3.55
2019-05-22T05:11:52.621Z,3.40
2019-05-22T05:14:18.849Z,3.75
2019-05-22T05:16:46.238Z,3.00
2019-05-22T05:19:12.538Z,3.25
2019-05-22T05:21:41.093Z,2.98
2019-05-22T05:24:07.208Z,2.75
2019-05-22T05:26:35.396Z,3.62
2019-05-22T05:29:02.220Z,2.42
2019-05-22T05:31:29.411Z,2.98
2019-05-22T05:34:07.874Z,2.83
2019-05-22T05:36:34.578Z,2.50
2019-05-22T05:39:06.489Z,3.25
2019-05-22T05:41:32.681Z,3.08
2019-05-22T05:43:59.171Z,3.00
2019-05-22T05:46:26.456Z,1.92
2019-05-22T05:48:54.379Z,2.17
2019-05-22T05:51:21.524Z,2.90
2019-05-22T05:53:58.201Z,2.50
2019-05-22T05:56:25.021Z,2.00
2019-05-22T05:58:51.263Z,2.90
2019-05-22T06:01:20.968Z,2.62
2019-05-22T06:03:47.549Z,2.67
2019-05-22T06:06:25.096Z,3.40
2019-05-22T06:08:56.586Z,2.20
2019-05-22T06:11:32.890Z,2.10
2019-05-22T06:14:01.312Z,1.92
2019-05-22T06:16:50.312Z,2.08
2019-05-22T06:19:17.278Z,2.00
2019-05-22T06:21:47.875Z,3.35
2019-05-22T06:24:25.585Z,2.35
2019-05-22T06:26:58.536Z,2.87
2019-05-22T06:29:32.511Z,2.00
2019-05-22T06:32:07.434Z,2.83
2019-05-22T06:34:35.279Z,3.05
2019-05-22T06:37:14.339Z,2.55
2019-05-22T06:39:41.168Z,3.70
2019-05-22T06:42:08.049Z,2.22
2019-05-22T06:44:35.192Z,3.25
2019-05-22T06:47:02.374Z,2.92
2019-05-22T06:49:35.525Z,2.52
2019-05-22T06:52:06.801Z,3.20
2019-05-22T06:54:33.125Z,3.10
2019-05-22T06:56:59.627Z,4.28
2019-05-22T06:59:26.452Z,3.17
2019-05-22T07:02:01.075Z,3.75
2019-05-22T07:04:22.107Z,3.45
2019-05-22T07:06:48.810Z,2.87
2019-05-22T07:09:16.109Z,3.90
2019-05-22T07:11:43.439Z,3.55
2019-05-22T07:14:09.916Z,3.00
2019-05-22T07:16:36.767Z,3.30
2019-05-22T07:19:06.765Z,3.10
2019-05-22T07:21:34.263Z,3.37
2019-05-22T07:24:01.277Z,3.40
2019-05-22T07:26:27.403Z,4.08
2019-05-22T07:28:54.892Z,4.65
2019-05-22T07:31:21.400Z,4.50
2019-05-22T07:33:51.327Z,4.03
2019-05-22T07:36:20.044Z,4.40
2019-05-22T07:38:46.350Z,3.65
2019-05-22T07:41:12.952Z,3.00
2019-05-22T07:43:41.639Z,4.20
2019-05-22T07:46:07.775Z,3.90
2019-05-22T07:48:34.866Z,3.92
2019-05-22T07:51:01.689Z,3.30
2019-05-22T07:53:28.274Z,3.42
2019-05-22T07:55:56.983Z,3.80
2019-05-22T07:58:25.582Z,3.95
2019-05-22T08:00:53.400Z,3.55
2019-05-22T08:03:20.895Z,4.33
2019-05-22T08:05:52.657Z,4.08
2019-05-22T08:08:19.764Z,4.22
2019-05-22T08:10:46.824Z,3.47
2019-05-22T08:13:14.373Z,3.10
2019-05-22T08:15:41.470Z,3.25
2019-05-22T08:18:09.147Z,3.50
2019-05-22T08:20:35.749Z,3.25
2019-05-22T08:23:02.083Z,4.05
2019-05-22T08:25:29.087Z,3.20
2019-05-22T08:27:56.967Z,3.47
2019-05-22T08:30:24.151Z,3.40
2019-05-22T08:32:51.461Z,3.15
2019-05-22T08:35:18.109Z,3.55
2019-05-22T08:37:44.678Z,2.70
2019-05-22T08:40:13.147Z,2.67
2019-05-22T08:42:40.470Z,4.10
2019-05-22T08:45:07.879Z,3.92
2019-05-22T08:47:34.288Z,3.45
2019-05-22T08:50:00.500Z,4.47
2019-05-22T08:52:28.717Z,3.47
2019-05-22T08:54:55.218Z,3.02
2019-05-22T08:57:21.785Z,4.50
2019-05-22T08:59:48.168Z,4.40
2019-05-22T09:02:15.117Z,4.62
2019-05-22T09:04:41.821Z,3.37
2019-05-22T09:07:07.913Z,3.25
2019-05-22T09:09:34.114Z,3.67
2019-05-22T09:12:00.410Z,3.40
2019-05-22T09:14:26.607Z,2.87
2019-05-22T09:16:53.994Z,4.08
2019-05-22T09:19:20.402Z,3.80
2019-05-22T09:21:46.500Z,2.55
2019-05-22T09:24:13.932Z,4.37
2019-05-22T09:26:40.719Z,5.08
2019-05-22T09:29:07.116Z,3.50
2019-05-22T09:31:33.296Z,3.85
2019-05-22T09:33:59.650Z,4.25
2019-05-22T09:36:26.011Z,3.40
2019-05-22T09:38:52.785Z,3.83
2019-05-22T09:41:20.264Z,3.55
2019-05-22T09:43:46.355Z,5.90
2019-05-22T09:46:13.196Z,5.87
2019-05-22T09:48:39.395Z,6.08
2019-05-22T09:51:05.798Z,4.95
2019-05-22T09:53:32.081Z,3.10
2019-05-22T09:55:59.202Z,4.17
2019-05-22T09:58:25.714Z,3.90
2019-05-22T10:00:52.114Z,5.90
2019-05-22T10:03:20.700Z,4.40
2019-05-22T10:05:47.175Z,5.55
2019-05-22T10:08:13.306Z,4.85
2019-05-22T10:10:39.590Z,5.92
2019-05-22T10:13:06.128Z,6.65
2019-05-22T10:15:33.869Z,5.40
2019-05-22T10:18:00.648Z,6.00
2019-05-22T10:20:27.780Z,6.62
2019-05-22T10:22:53.926Z,6.40
2019-05-22T10:25:20.424Z,8.00
2019-05-22T10:27:48.031Z,5.15
2019-05-22T10:30:22.133Z,4.28
2019-05-22T10:32:49.478Z,6.67
2019-05-22T10:35:17.805Z,8.35
2019-05-22T10:37:44.158Z,6.12
2019-05-22T10:40:13.058Z,9.40
2019-05-22T10:42:39.258Z,6.37
2019-05-22T10:45:06.142Z,5.45
2019-05-22T10:47:32.583Z,6.12
2019-05-22T10:49:59.067Z,8.65
2019-05-22T10:52:25.286Z,7.72
2019-05-22T10:54:51.690Z,6.50
2019-05-22T10:57:18.098Z,7.53
2019-05-22T10:59:44.305Z,5.47
2019-05-22T11:02:11.379Z,7.92
2019-05-22T11:04:39.979Z,7.08
2019-05-22T11:07:07.437Z,6.87
2019-05-22T11:09:34.360Z,6.87
2019-05-22T11:12:03.493Z,7.95
2019-05-22T11:14:30.908Z,7.90
2019-05-22T11:16:57.191Z,7.08
2019-05-22T11:19:23.607Z,7.17
2019-05-22T11:21:49.798Z,5.72
2019-05-22T11:24:16.285Z,10.03
2019-05-22T11:26:43.096Z,9.38
2019-05-22T11:29:09.888Z,7.62
2019-05-22T11:31:36.691Z,7.50
2019-05-22T11:34:03.820Z,7.22
2019-05-22T11:36:30.717Z,5.75
2019-05-22T11:38:57.109Z,7.37
2019-05-22T11:41:24.308Z,8.18
2019-05-22T11:43:51.362Z,8.30
2019-05-22T11:46:17.733Z,6.95
2019-05-22T11:48:44.537Z,6.90
2019-05-22T11:51:11.537Z,7.50
2019-05-22T11:53:37.864Z,7.12
2019-05-22T11:56:04.070Z,8.33
2019-05-22T11:58:30.554Z,8.20
2019-05-22T12:00:56.875Z,6.50
2019-05-22T12:03:24.082Z,7.03
2019-05-22T12:05:51.202Z,7.33
2019-05-22T12:08:17.788Z,7.30
2019-05-22T12:10:44.234Z,8.30
2019-05-22T12:13:11.905Z,8.43
2019-05-22T12:15:38.736Z,6.00
2019-05-22T12:18:07.027Z,5.75
2019-05-22T12:20:34.616Z,5.33
2019-05-22T12:23:04.730Z,4.28
2019-05-22T12:25:30.995Z,5.30
2019-05-22T12:27:57.177Z,5.47
2019-05-22T12:30:23.982Z,5.25
2019-05-22T12:32:50.916Z,7.47
2019-05-22T12:35:17.827Z,5.50
2019-05-22T12:37:44.147Z,6.33
2019-05-22T12:40:15.958Z,4.55
2019-05-22T12:42:43.948Z,6.17
2019-05-22T12:45:12.646Z,6.03
2019-05-22T12:47:40.532Z,6.53
2019-05-22T12:50:07.953Z,5.70
2019-05-22T12:52:34.494Z,7.75
2019-05-22T12:55:01.318Z,9.43
2019-05-22T12:57:28.392Z,15.05
2019-05-22T12:59:56.006Z,10.68
2019-05-22T13:02:22.195Z,13.68
2019-05-22T13:04:48.607Z,18.73
2019-05-22T13:07:16.125Z,20.00
2019-05-22T13:09:42.238Z,14.43
2019-05-22T13:12:09.634Z,16.05
2019-05-22T13:14:35.844Z,17.40
2019-05-22T13:17:03.231Z,16.32
2019-05-22T13:19:31.807Z,13.58
2019-05-22T13:21:59.993Z,14.78
2019-05-22T13:24:27.453Z,16.05
2019-05-22T13:26:54.602Z,16.10
2019-05-22T13:29:21.918Z,11.80
2019-05-22T13:31:49.003Z,17.45
2019-05-22T13:34:16.244Z,17.27
2019-05-22T13:36:44.655Z,14.35
2019-05-22T13:39:11.187Z,14.00
2019-05-22T13:41:38.716Z,11.65
2019-05-22T13:44:06.327Z,9.95
2019-05-22T13:46:33.745Z,9.53
2019-05-22T13:48:59.851Z,10.20
2019-05-22T13:51:26.872Z,12.25
2019-05-22T13:53:53.251Z,10.38
2019-05-22T13:56:20.363Z,10.08
2019-05-22T13:58:47.578Z,9.68
2019-05-22T14:01:14.004Z,8.00
2019-05-22T14:03:41.469Z,8.63
2019-05-22T14:06:07.988Z,8.53
2019-05-22T14:08:34.424Z,10.75
2019-05-22T14:11:00.731Z,11.40
2019-05-22T14:13:27.213Z,10.32
2019-05-22T14:15:56.872Z,10.45
2019-05-22T14:18:21.978Z,10.08
2019-05-22T14:20:48.489Z,11.08
2019-05-22T14:23:15.181Z,12.63
2019-05-22T14:25:42.385Z,11.18
2019-05-22T14:28:09.196Z,10.15
2019-05-22T14:30:36.323Z,12.25
2019-05-22T14:33:05.089Z,9.93
2019-05-22T14:35:47.500Z,8.18
2019-05-22T14:38:04.465Z,9.28
2019-05-22T14:40:31.090Z,12.50
2019-05-22T14:42:57.307Z,11.38
2019-05-22T14:45:23.839Z,13.40
2019-05-22T14:47:50.222Z,13.00
2019-05-22T14:50:16.772Z,11.53
2019-05-22T14:52:43.046Z,12.28
2019-05-22T14:55:10.114Z,11.75
2019-05-22T14:57:37.215Z,12.43
2019-05-22T15:00:07.236Z,9.55
2019-05-22T15:02:33.919Z,9.88
2019-05-22T15:05:00.420Z,10.70
2019-05-22T15:07:26.720Z,10.03
2019-05-22T15:09:53.043Z,6.15
2019-05-22T15:12:19.509Z,6.67
2019-05-22T15:14:45.692Z,7.25
2019-05-22T15:17:31.049Z,4.87
2019-05-22T15:20:00.014Z,5.00
2019-05-22T15:22:21.957Z,2.80
2019-05-22T15:24:49.363Z,4.60
2019-05-22T15:27:16.393Z,5.00
2019-05-22T15:29:42.711Z,4.75
2019-05-22T15:32:09.971Z,4.17
2019-05-22T15:34:38.634Z,4.17
2019-05-22T15:37:05.895Z,3.90
2019-05-22T15:39:33.444Z,5.25
2019-05-22T15:41:59.932Z,3.80
2019-05-22T15:44:26.862Z,3.22
2019-05-22T15:46:53.580Z,3.27
2019-05-22T15:49:20.299Z,3.40
2019-05-22T15:51:48.098Z,7.00
2019-05-22T15:54:17.230Z,5.40
2019-05-22T15:56:44.979Z,6.55
2019-05-22T15:59:12.187Z,6.35
2019-05-22T16:01:40.605Z,5.85
2019-05-22T16:04:10.534Z,6.53
2019-05-22T16:06:36.858Z,3.70
2019-05-22T16:09:07.283Z,3.30
2019-05-22T16:11:34.418Z,5.00
2019-05-22T16:14:04.100Z,4.75
2019-05-22T16:16:34.263Z,4.60
2019-05-22T16:19:06.764Z,4.20
2019-05-22T16:21:36.575Z,3.70
2019-05-22T16:24:04.899Z,4.28
2019-05-22T16:26:31.573Z,2.92
2019-05-22T16:28:59.696Z,2.25
2019-05-22T16:31:26.175Z,3.30
2019-05-22T16:33:53.351Z,2.22
2019-05-22T16:36:21.288Z,4.10
2019-05-22T16:38:48.276Z,2.45
2019-05-22T16:41:14.531Z,2.20
2019-05-22T16:43:49.460Z,3.17
2019-05-22T16:46:12.729Z,2.55
2019-05-22T16:48:41.851Z,2.83
2019-05-22T16:51:09.953Z,2.45
2019-05-22T16:53:37.496Z,1.95
2019-05-22T16:56:05.023Z,2.87
2019-05-22T16:58:33.661Z,2.67
2019-05-22T17:01:03.720Z,3.00
2019-05-22T17:03:31.884Z,2.33
2019-05-22T17:05:57.996Z,2.02
2019-05-22T17:08:28.171Z,1.95
2019-05-22T17:10:57.060Z,2.20
2019-05-22T17:13:24.938Z,2.20
2019-05-22T17:15:51.178Z,2.42
2019-05-22T17:18:19.338Z,1.40
2019-05-22T17:20:48.249Z,1.00
2019-05-22T17:23:15.396Z,1.70
2019-05-22T17:25:42.485Z,1.95
2019-05-22T17:28:08.885Z,1.65
2019-05-22T17:30:36.413Z,1.57
2019-05-22T17:33:03.669Z,1.05
2019-05-22T17:35:30.057Z,2.67
2019-05-22T17:37:57.034Z,2.42
2019-05-22T17:40:23.189Z,3.10
2019-05-22T17:42:52.123Z,1.30
2019-05-22T17:45:20.319Z,1.70
2019-05-22T17:47:49.793Z,1.40
2019-05-22T17:50:26.795Z,2.65
2019-05-22T17:52:46.696Z,2.10
2019-05-22T17:55:14.120Z,2.47
2019-05-22T17:57:40.955Z,1.52
2019-05-22T18:00:12.046Z,1.70
2019-05-22T18:02:39.423Z,1.80
2019-05-22T18:05:07.686Z,2.02
2019-05-22T18:07:34.787Z,1.10
2019-05-22T18:10:01.209Z,2.47
2019-05-22T18:12:28.312Z,2.25
2019-05-22T18:14:54.766Z,1.90
2019-05-22T18:17:21.612Z,1.35
2019-05-22T18:19:47.752Z,1.52
2019-05-22T18:22:16.055Z,2.08
2019-05-22T18:24:42.465Z,1.37
2019-05-22T18:27:08.756Z,0.82
2019-05-22T18:29:37.842Z,1.00
2019-05-22T18:32:06.944Z,0.70
2019-05-22T18:34:33.753Z,0.78
2019-05-22T18:37:00.177Z,0.80
2019-05-22T18:39:26.946Z,0.80
2019-05-22T18:41:54.108Z,0.80
2019-05-22T18:44:20.400Z,0.80
2019-05-22T18:46:47.122Z,0.90
2019-05-22T18:49:13.888Z,1.37
2019-05-22T18:51:40.684Z,0.88
2019-05-22T18:54:08.063Z,0.90
2019-05-22T18:56:34.877Z,0.80
2019-05-22T18:59:04.557Z,1.98
2019-05-22T19:01:31.361Z,1.30
2019-05-22T19:03:57.486Z,1.25
2019-05-22T19:06:30.658Z,1.25
2019-05-22T19:08:54.387Z,1.27
2019-05-22T19:11:21.785Z,1.20
2019-05-22T19:16:45.113Z,0.60
2019-05-22T19:19:11.325Z,0.90
2019-05-22T19:21:37.556Z,1.17
2019-05-22T19:24:04.032Z,1.10
2019-05-22T19:26:30.231Z,1.07
2019-05-22T19:28:56.809Z,0.80
2019-05-22T19:31:24.130Z,0.60
2019-05-22T19:33:50.264Z,0.85
2019-05-22T19:36:16.508Z,0.68
2019-05-22T19:38:44.886Z,1.02
2019-05-22T19:41:11.347Z,0.80
2019-05-22T19:43:37.948Z,0.60
2019-05-22T19:46:04.374Z,1.10
2019-05-22T19:48:32.898Z,1.00
2019-05-22T19:51:04.329Z,1.10
2019-05-22T19:53:31.103Z,1.17
2019-05-22T19:55:57.724Z,0.65
2019-05-22T19:58:25.228Z,0.80
2019-05-22T20:00:52.714Z,0.70
2019-05-22T20:03:20.447Z,0.93
2019-05-22T20:05:47.958Z,1.20
2019-05-22T20:08:14.433Z,1.00
2019-05-22T20:10:40.660Z,1.30
2019-05-22T20:13:07.350Z,1.17
2019-05-22T20:15:33.761Z,1.32
2019-05-22T20:17:59.848Z,0.93
2019-05-22T20:20:26.833Z,1.00
2019-05-22T20:22:53.433Z,0.80
2019-05-22T20:25:21.366Z,1.17
2019-05-22T20:27:47.780Z,0.88
2019-05-22T20:30:15.116Z,0.62
2019-05-22T20:32:42.119Z,0.70
2019-05-22T20:35:09.841Z,0.90
2019-05-22T20:37:36.746Z,0.65
2019-05-22T20:40:06.832Z,0.70
2019-05-22T20:42:33.586Z,0.50
2019-05-22T20:45:01.728Z,0.60
2019-05-22T20:47:28.965Z,0.65
2019-05-22T20:49:56.859Z,0.60
2019-05-22T20:52:24.346Z,0.75
2019-05-22T20:54:51.107Z,0.68
2019-05-22T20:57:20.134Z,0.50
2019-05-22T20:59:47.025Z,0.80
2019-05-22T21:02:13.549Z,0.75
2019-05-22T21:04:43.176Z,0.70
2019-05-22T21:07:10.845Z,0.70
2019-05-22T21:09:37.993Z,0.95
2019-05-22T21:12:06.382Z,0.90
2019-05-22T21:14:34.455Z,0.72
2019-05-22T21:17:00.674Z,1.00
2019-05-22T21:19:28.764Z,0.80
2019-05-22T21:21:56.758Z,0.70
2019-05-22T21:24:22.859Z,0.70
2019-05-22T21:26:49.259Z,0.70
2019-05-22T21:29:15.347Z,1.00
2019-05-22T21:31:42.095Z,0.68
2019-05-22T21:34:08.690Z,0.65
2019-05-22T21:36:34.990Z,0.68
2019-05-22T21:39:03.941Z,0.88
2019-05-22T21:41:30.423Z,1.02
2019-05-22T21:43:56.912Z,1.00
2019-05-22T21:46:23.234Z,0.90
2019-05-22T21:48:50.745Z,0.90
2019-05-22T21:51:17.841Z,1.17
2019-05-22T21:53:44.047Z,1.10
2019-05-22T21:56:10.545Z,1.30
2019-05-22T21:58:38.197Z,1.35
2019-05-22T22:01:09.124Z,1.42
2019-05-22T22:03:43.541Z,1.20
2019-05-22T22:06:13.602Z,1.75
2019-05-22T22:08:40.150Z,1.27
2019-05-22T22:11:08.235Z,1.10
2019-05-22T22:13:36.938Z,1.42
2019-05-22T22:16:03.779Z,1.70
2019-05-22T22:18:30.899Z,1.17
2019-05-22T22:20:58.407Z,1.40
2019-05-22T22:23:25.357Z,1.40
2019-05-22T22:25:52.223Z,1.60
2019-05-22T22:28:18.806Z,1.60
2019-05-22T22:30:52.914Z,1.47
2019-05-22T22:33:22.919Z,1.55
2019-05-22T22:35:50.764Z,1.60
2019-05-22T22:38:18.251Z,1.70
2019-05-22T22:40:44.371Z,1.85
2019-05-22T22:43:11.986Z,1.60
2019-05-22T22:45:42.553Z,1.70
2019-05-22T22:48:09.765Z,1.90
2019-05-22T22:50:37.270Z,1.92
2019-05-22T22:53:05.599Z,2.08
2019-05-22T22:55:31.912Z,1.60
2019-05-22T22:58:15.828Z,1.50
2019-05-22T23:00:39.041Z,1.70
2019-05-22T23:03:10.580Z,1.50
2019-05-22T23:05:38.767Z,1.70
2019-05-22T23:08:08.570Z,1.67
2019-05-22T23:10:35.810Z,1.90
2019-05-22T23:13:04.834Z,2.58
2019-05-22T23:15:31.195Z,1.90
2019-05-22T23:17:59.525Z,2.27
2019-05-22T23:20:25.773Z,2.50
2019-05-22T23:22:51.815Z,2.47
2019-05-22T23:25:19.501Z,1.90
2019-05-22T23:27:46.913Z,2.25
2019-05-22T23:30:15.528Z,2.80
2019-05-22T23:32:44.037Z,2.00
2019-05-22T23:35:13.293Z,2.50
2019-05-22T23:37:41.596Z,2.50
2019-05-22T23:40:08.321Z,2.40
2019-05-22T23:42:38.910Z,2.00
2019-05-22T23:45:13.380Z,2.12
2019-05-22T23:47:50.216Z,1.60
2019-05-22T23:50:16.554Z,2.40
2019-05-22T23:52:42.780Z,3.00
2019-05-22T23:55:09.972Z,2.92
2019-05-22T23:57:36.266Z,2.20
